Time;durP1;ratioP1;P1;durP2;ratioP2;P2;SDS_P1;SDS_P2;PMS_P1;PMS_P2;Temp;Humidity;BMP_temperature;BMP_pressure;BME280_temperature;BME280_humidity;BME280_pressure;Samples;Min_cycle;Max_cycle;Signal;HPM_P1;HPM_P2
2022/11/07 04:23:07;;;;;;;15.60;14.80;;;12.20;99.90;;;;;;5296373;23;20484;-75
2022/11/07 04:28:17;;;;;;;16.30;15.40;;;12.10;99.90;;;;;;4970080;28;20482;-75
2022/11/07 04:30:44;;;;;;;16.30;15.27;;;12.00;99.90;;;;;;4970199;28;20843;-74
2022/11/07 04:33:11;;;;;;;16.93;15.80;;;12.00;99.90;;;;;;4970073;28;20484;-75
2022/11/07 04:35:37;;;;;;;15.20;14.50;;;12.00;99.90;;;;;;4969621;28;20448;-75
2022/11/07 04:38:04;;;;;;;16.00;15.17;;;11.90;99.90;;;;;;4969628;28;20459;-74
2022/11/07 04:40:32;;;;;;;16.60;15.60;;;11.90;99.90;;;;;;4969532;28;20458;-74
2022/11/07 04:42:59;;;;;;;16.57;15.57;;;11.80;99.90;;;;;;4969768;28;20472;-75
2022/11/07 04:45:26;;;;;;;14.97;14.27;;;11.80;99.90;;;;;;4972957;28;20448;-75
2022/11/07 04:47:53;;;;;;;15.50;14.70;;;11.80;99.90;;;;;;4973698;28;20447;-75
2022/11/07 04:50:20;;;;;;;15.93;15.20;;;11.80;99.90;;;;;;4973448;28;20561;-74
2022/11/07 04:52:47;;;;;;;16.57;15.60;;;11.80;99.90;;;;;;4973376;28;20479;-75
2022/11/07 04:55:20;;;;;;;17.47;16.23;;;11.80;99.90;;;;;;4973504;28;20555;-74
2022/11/07 04:57:48;;;;;;;17.03;16.03;;;11.80;99.90;;;;;;4973477;28;20452;-75
2022/11/07 05:00:17;;;;;;;15.20;14.50;;;11.70;99.90;;;;;;4973311;28;20482;-75
2022/11/07 05:02:43;;;;;;;17.07;16.10;;;11.70;99.90;;;;;;4973514;28;20948;-74
2022/11/07 05:05:11;;;;;;;17.53;16.43;;;11.80;99.90;;;;;;4973409;28;20485;-74
2022/11/07 05:07:38;;;;;;;17.20;16.30;;;11.80;99.90;;;;;;4973100;28;20795;-74
2022/11/07 05:10:06;;;;;;;18.63;17.30;;;11.80;99.90;;;;;;4973337;28;20448;-76
2022/11/07 05:12:32;;;;;;;17.13;15.83;;;11.80;99.90;;;;;;4973378;28;20586;-76
2022/11/07 05:15:00;;;;;;;16.57;15.70;;;11.80;99.90;;;;;;4973529;28;20448;-75
2022/11/07 05:17:27;;;;;;;16.57;15.57;;;11.80;99.90;;;;;;4973701;28;20448;-76
2022/11/07 05:19:54;;;;;;;14.90;13.97;;;11.70;99.90;;;;;;4973396;28;20439;-75
2022/11/07 05:25:05;;;;;;;17.13;15.87;;;11.60;99.90;;;;;;4973009;28;20632;-76
2022/11/07 05:27:32;;;;;;;17.30;16.30;;;11.60;99.90;;;;;;4972606;28;20482;-76
2022/11/07 05:30:00;;;;;;;16.33;15.30;;;11.50;99.90;;;;;;4973208;28;20467;-75
2022/11/07 05:32:27;;;;;;;16.63;15.73;;;11.50;99.90;;;;;;4973147;28;20479;-76
2022/11/07 05:34:54;;;;;;;17.27;16.30;;;11.50;99.90;;;;;;4973936;28;21044;-76
2022/11/07 05:37:21;;;;;;;17.20;16.30;;;11.50;99.90;;;;;;4973815;28;20469;-77
2022/11/07 05:39:47;;;;;;;18.20;16.97;;;11.40;99.90;;;;;;4973816;28;20447;-74
2022/11/07 05:42:14;;;;;;;16.40;15.47;;;11.20;99.90;;;;;;4973485;28;20464;-74
2022/11/07 05:44:41;;;;;;;17.53;16.70;;;11.20;99.90;;;;;;4973295;28;20451;-75
2022/11/07 05:47:09;;;;;;;16.23;15.53;;;11.10;99.90;;;;;;4972616;28;20451;-75
2022/11/07 05:49:36;;;;;;;16.17;15.27;;;11.10;99.90;;;;;;4972442;28;20454;-75
2022/11/07 05:52:02;;;;;;;15.53;14.83;;;11.10;99.90;;;;;;4972393;28;20479;-75
2022/11/07 05:54:29;;;;;;;15.17;14.47;;;11.20;99.90;;;;;;4972903;28;20451;-75
2022/11/07 05:56:57;;;;;;;15.30;14.60;;;11.10;99.90;;;;;;4972001;28;20479;-74
2022/11/07 05:59:24;;;;;;;14.87;14.00;;;11.20;99.90;;;;;;4973766;28;20455;-73
2022/11/07 06:01:51;;;;;;;15.33;14.73;;;11.20;99.90;;;;;;4973454;28;20683;-73
2022/11/07 06:04:20;;;;;;;15.90;14.87;;;11.10;99.90;;;;;;4973059;28;20487;-74
2022/11/07 06:06:46;;;;;;;15.53;14.60;;;11.10;99.90;;;;;;4972662;28;20451;-74
2022/11/07 06:09:13;;;;;;;14.97;13.97;;;11.10;99.90;;;;;;4972226;28;20463;-74
2022/11/07 06:11:40;;;;;;;14.57;13.90;;;11.10;99.90;;;;;;4972045;28;20455;-74
2022/11/07 06:14:07;;;;;;;13.70;13.00;;;11.00;99.90;;;;;;4971786;28;20448;-74
2022/11/07 06:16:34;;;;;;;14.80;14.10;;;11.00;99.90;;;;;;4971778;28;20805;-74
2022/11/07 06:19:01;;;;;;;15.00;14.10;;;11.10;99.90;;;;;;4971977;28;20454;-74
2022/11/07 06:21:29;;;;;;;14.57;13.77;;;11.00;99.90;;;;;;4971905;28;20478;-74
2022/11/07 06:23:55;;;;;;;14.80;14.00;;;10.90;99.90;;;;;;4972188;28;20467;-74
2022/11/07 06:26:22;;;;;;;15.03;14.33;;;10.90;99.90;;;;;;4971631;28;20465;-74
2022/11/07 06:28:49;;;;;;;16.20;15.40;;;10.90;99.90;;;;;;4971589;28;20733;-75
2022/11/07 06:31:16;;;;;;;16.83;15.67;;;10.80;99.90;;;;;;4971675;28;20542;-75
2022/11/07 06:33:42;;;;;;;17.00;15.90;;;10.80;99.90;;;;;;4972018;28;20490;-74
2022/11/07 06:36:12;;;;;;;18.10;16.97;;;10.80;99.90;;;;;;4971674;28;20451;-74
2022/11/07 06:38:40;;;;;;;16.90;15.90;;;10.80;99.90;;;;;;4971500;28;20452;-75
2022/11/07 06:41:08;;;;;;;16.90;15.97;;;10.80;99.90;;;;;;4971415;28;20538;-73
2022/11/07 06:43:35;;;;;;;14.67;13.97;;;10.80;99.90;;;;;;4971265;28;20786;-73
2022/11/07 06:46:04;;;;;;;17.23;16.43;;;10.90;99.90;;;;;;4971453;28;20455;-73
2022/11/07 06:48:31;;;;;;;19.60;18.40;;;11.10;99.90;;;;;;4971381;28;20542;-74
2022/11/07 06:50:58;;;;;;;15.97;15.17;;;11.20;99.90;;;;;;4971322;28;20455;-75
2022/11/07 06:53:25;;;;;;;16.20;15.30;;;11.20;99.90;;;;;;4971165;28;21027;-75
2022/11/07 06:55:54;;;;;;;15.57;14.80;;;11.20;99.90;;;;;;4971018;28;20459;-74
2022/11/07 06:58:21;;;;;;;16.83;15.80;;;11.30;99.90;;;;;;4971351;28;20484;-74
2022/11/07 07:00:48;;;;;;;15.60;14.90;;;11.30;99.90;;;;;;4971396;28;20474;-75
2022/11/07 07:03:15;;;;;;;16.27;15.37;;;11.20;99.90;;;;;;4971713;28;20448;-75
2022/11/07 07:05:42;;;;;;;17.50;16.50;;;11.30;99.90;;;;;;4971847;28;20452;-75
2022/11/07 07:08:11;;;;;;;17.73;16.77;;;11.20;99.90;;;;;;4970470;28;20444;-75
2022/11/07 07:10:41;;;;;;;17.97;16.73;;;11.20;99.90;;;;;;4971260;28;20969;-74
2022/11/07 07:13:10;;;;;;;19.33;17.93;;;11.20;99.90;;;;;;4971156;28;20487;-74
2022/11/07 07:15:36;;;;;;;18.63;17.43;;;11.30;99.90;;;;;;4971657;28;20943;-74
2022/11/07 07:18:04;;;;;;;18.70;17.07;;;11.30;99.90;;;;;;4971079;28;20447;-75
2022/11/07 07:20:31;;;;;;;17.73;16.47;;;11.40;99.90;;;;;;4971079;28;20482;-75
2022/11/07 07:22:58;;;;;;;16.97;15.97;;;11.50;99.90;;;;;;4970997;28;20476;-75
2022/11/07 07:25:25;;;;;;;18.60;17.00;;;11.60;99.90;;;;;;4971084;28;20440;-74
2022/11/07 07:27:52;;;;;;;20.20;18.37;;;11.70;99.90;;;;;;4970861;28;20860;-73
2022/11/07 07:30:20;;;;;;;18.17;15.80;;;11.80;99.90;;;;;;4970887;28;20708;-76
2022/11/07 07:32:46;;;;;;;16.70;15.27;;;12.10;99.90;;;;;;4970458;28;20494;-74
2022/11/07 07:35:13;;;;;;;18.93;17.27;;;12.30;99.90;;;;;;4970668;28;20576;-74
2022/11/07 07:37:40;;;;;;;18.03;16.80;;;12.40;99.90;;;;;;4970787;28;20452;-73
2022/11/07 07:40:09;;;;;;;17.67;16.47;;;12.40;99.90;;;;;;4970377;28;20777;-74
2022/11/07 07:42:41;;;;;;;18.23;17.20;;;12.40;99.90;;;;;;4969320;28;20464;-79
2022/11/07 07:45:09;;;;;;;18.50;16.77;;;12.30;99.90;;;;;;4971454;28;20455;-80
2022/11/07 07:47:38;;;;;;;17.60;16.13;;;12.30;99.90;;;;;;4970638;28;20447;-80
2022/11/07 07:50:05;;;;;;;16.40;15.30;;;12.30;99.90;;;;;;4970730;28;20444;-78
2022/11/07 07:52:32;;;;;;;18.00;16.30;;;12.40;99.90;;;;;;4970806;28;20491;-80
2022/11/07 07:54:59;;;;;;;18.57;17.07;;;12.50;99.90;;;;;;4971075;28;20538;-78
2022/11/07 07:57:25;;;;;;;15.83;14.73;;;12.70;99.90;;;;;;4970711;28;20459;-78
2022/11/07 07:59:52;;;;;;;15.60;14.37;;;12.90;99.90;;;;;;4970540;28;20447;-77
2022/11/07 08:02:19;;;;;;;15.63;14.53;;;13.00;99.90;;;;;;4970561;28;20451;-78
2022/11/07 08:04:47;;;;;;;16.57;15.10;;;13.20;99.90;;;;;;4970497;28;20801;-76
2022/11/07 08:07:14;;;;;;;14.93;13.67;;;13.40;99.90;;;;;;4970434;28;20953;-76
2022/11/07 08:09:40;;;;;;;14.50;13.43;;;13.50;99.90;;;;;;4973007;28;20451;-76
2022/11/07 08:12:08;;;;;;;13.73;12.60;;;13.70;99.90;;;;;;4970313;28;20458;-78
2022/11/07 08:14:35;;;;;;;14.80;13.60;;;13.90;99.90;;;;;;4970263;28;20741;-76
2022/11/07 08:17:02;;;;;;;14.73;13.80;;;13.80;99.90;;;;;;4977752;28;20463;-76
2022/11/07 08:19:29;;;;;;;15.33;13.90;;;13.70;99.90;;;;;;4973787;28;20448;-79
2022/11/07 08:21:57;;;;;;;15.63;14.10;;;13.70;99.90;;;;;;4972327;28;20484;-78
2022/11/07 08:24:24;;;;;;;16.97;15.27;;;13.60;99.90;;;;;;4969041;28;20444;-78
2022/11/07 08:26:50;;;;;;;16.53;14.27;;;13.70;99.90;;;;;;4970240;28;20447;-77
2022/11/07 08:29:18;;;;;;;13.60;12.50;;;13.70;99.90;;;;;;4969958;28;20522;-77
2022/11/07 08:31:45;;;;;;;20.80;16.53;;;13.80;99.90;;;;;;4969978;28;20455;-77
2022/11/07 08:34:12;;;;;;;14.63;13.83;;;13.90;99.90;;;;;;4970193;28;20494;-77
2022/11/07 08:36:38;;;;;;;15.03;13.70;;;14.00;99.90;;;;;;4969663;28;20454;-77
2022/11/07 08:39:07;;;;;;;14.07;13.03;;;13.90;99.90;;;;;;4969734;28;20448;-77
2022/11/07 08:41:33;;;;;;;14.77;13.90;;;13.90;99.90;;;;;;4969845;28;20448;-75
2022/11/07 08:44:00;;;;;;;16.50;12.90;;;13.80;99.90;;;;;;4969907;28;20451;-77
2022/11/07 08:46:27;;;;;;;12.90;12.00;;;13.80;99.90;;;;;;4969769;28;20454;-75
2022/11/07 08:48:54;;;;;;;12.37;11.67;;;13.90;99.90;;;;;;4969526;28;20455;-75
2022/11/07 08:51:20;;;;;;;12.43;11.63;;;13.80;99.90;;;;;;4969653;28;20447;-76
2022/11/07 08:53:47;;;;;;;13.00;12.30;;;13.90;99.90;;;;;;4969551;28;21023;-75
2022/11/07 08:56:15;;;;;;;13.53;12.73;;;13.90;99.90;;;;;;4969894;28;20447;-75
2022/11/07 08:58:42;;;;;;;14.10;13.10;;;13.90;99.90;;;;;;4969984;28;20455;-75
2022/11/07 09:01:10;;;;;;;15.13;13.27;;;14.10;99.90;;;;;;4969514;28;20826;-75
2022/11/07 09:03:38;;;;;;;13.53;12.53;;;14.20;99.90;;;;;;4970732;28;20452;-75
2022/11/07 09:06:05;;;;;;;13.03;12.23;;;14.50;99.90;;;;;;4970026;28;20443;-76
2022/11/07 09:08:33;;;;;;;13.13;12.40;;;14.50;99.90;;;;;;4969822;28;20456;-77
2022/11/07 09:11:03;;;;;;;13.13;12.23;;;14.50;99.90;;;;;;4970327;28;20452;-75
2022/11/07 09:13:33;;;;;;;13.80;12.70;;;14.50;99.90;;;;;;4969984;28;20506;-75
2022/11/07 09:16:01;;;;;;;12.83;12.10;;;14.60;99.90;;;;;;4969965;28;20457;-76
2022/11/07 09:18:28;;;;;;;11.80;11.20;;;14.80;99.90;;;;;;4969858;28;20451;-76
2022/11/07 09:20:56;;;;;;;12.17;11.37;;;14.80;99.90;;;;;;4969498;28;20472;-76
2022/11/07 09:23:24;;;;;;;12.40;11.60;;;14.90;99.90;;;;;;4969362;28;20475;-76
2022/11/07 09:25:50;;;;;;;12.97;12.17;;;15.10;99.90;;;;;;4969487;28;20554;-76
2022/11/07 09:28:17;;;;;;;13.10;12.50;;;15.10;99.90;;;;;;4969426;28;20452;-76
2022/11/07 09:30:45;;;;;;;13.70;12.63;;;15.20;99.90;;;;;;4969862;28;20455;-76
2022/11/07 09:33:12;;;;;;;12.53;11.73;;;15.20;99.90;;;;;;4973295;28;20785;-76
2022/11/07 09:35:39;;;;;;;13.00;12.00;;;15.20;99.90;;;;;;4973017;28;20447;-76
2022/11/07 09:38:05;;;;;;;11.50;11.00;;;15.30;99.90;;;;;;4972825;28;20466;-76
2022/11/07 09:40:43;;;;;;;11.07;10.57;;;15.50;99.90;;;;;;4973024;28;20451;-76
2022/11/07 09:43:42;;;;;;;11.87;11.17;;;15.40;99.90;;;;;;4974035;28;20454;-74
2022/11/07 09:46:25;;;;;;;11.83;11.20;;;15.30;99.90;;;;;;4972531;28;20463;-76
2022/11/07 09:48:58;;;;;;;10.90;10.50;;;15.40;99.90;;;;;;4972803;28;20888;-76
2022/11/07 09:51:28;;;;;;;11.97;11.10;;;15.40;99.90;;;;;;4972972;28;20455;-76
2022/11/07 09:54:00;;;;;;;12.33;11.40;;;15.40;99.90;;;;;;4972806;28;20495;-75
2022/11/07 09:56:29;;;;;;;12.33;11.07;;;15.30;99.90;;;;;;4973142;28;20480;-76
2022/11/07 09:58:59;;;;;;;11.00;10.50;;;15.30;99.90;;;;;;4973114;28;20455;-76
2022/11/07 10:01:31;;;;;;;12.60;11.70;;;15.40;99.90;;;;;;4972912;28;20463;-75
2022/11/07 10:03:57;;;;;;;11.40;10.80;;;15.40;99.90;;;;;;4972471;28;20447;-75
2022/11/07 10:06:27;;;;;;;12.30;11.60;;;15.30;99.90;;;;;;4978053;28;20448;-77
2022/11/07 10:09:02;;;;;;;13.73;12.63;;;15.30;99.90;;;;;;4979001;28;20464;-76
2022/11/07 10:11:34;;;;;;;13.17;12.37;;;15.30;99.90;;;;;;4972542;28;20463;-76
2022/11/07 10:14:09;;;;;;;11.80;11.30;;;15.30;99.90;;;;;;4972380;28;20555;-76
2022/11/07 10:16:48;;;;;;;12.93;11.73;;;15.30;99.90;;;;;;4972082;28;20451;-76
2022/11/07 10:19:39;;;;;;;10.90;10.40;;;15.40;99.90;;;;;;4972065;28;20933;-75
2022/11/07 10:22:16;;;;;;;12.70;12.00;;;15.40;99.90;;;;;;4967502;28;20496;-75
2022/11/07 10:24:54;;;;;;;11.57;10.97;;;15.40;99.90;;;;;;4961291;28;20448;-75
2022/11/07 10:27:22;;;;;;;12.70;11.70;;;15.40;99.90;;;;;;4952676;28;20826;-76
2022/11/07 10:29:52;;;;;;;34.70;11.67;;;15.50;99.90;;;;;;4952971;28;20448;-75
2022/11/07 10:32:24;;;;;;;11.13;10.57;;;15.50;99.90;;;;;;4953026;28;20459;-75
2022/11/07 10:34:59;;;;;;;12.47;11.57;;;15.60;99.90;;;;;;4951014;28;20503;-75
2022/11/07 10:37:25;;;;;;;10.73;10.23;;;15.60;99.90;;;;;;4951744;28;20825;-76
2022/11/07 10:39:52;;;;;;;12.17;11.37;;;15.70;99.90;;;;;;4953466;28;20468;-76
2022/11/07 10:42:23;;;;;;;11.50;10.80;;;15.80;99.90;;;;;;4952977;28;20492;-76
2022/11/07 10:44:52;;;;;;;11.77;11.10;;;15.90;99.90;;;;;;4953176;28;20750;-76
2022/11/07 10:47:22;;;;;;;12.43;11.50;;;16.00;99.90;;;;;;4953071;28;20452;-76
2022/11/07 10:49:55;;;;;;;10.83;10.20;;;16.10;99.90;;;;;;4952938;28;20472;-75
2022/11/07 10:52:22;;;;;;;11.60;10.80;;;16.20;99.90;;;;;;4965700;28;20499;-76
2022/11/07 10:54:49;;;;;;;10.63;10.23;;;16.30;99.90;;;;;;4971919;28;20510;-76
2022/11/07 10:57:17;;;;;;;11.70;11.10;;;16.30;99.90;;;;;;4972426;28;20463;-75
2022/11/07 10:59:54;;;;;;;11.77;11.00;;;16.40;99.90;;;;;;4972485;28;20462;-76
2022/11/07 11:02:24;;;;;;;12.03;11.43;;;16.40;99.90;;;;;;4972296;28;21018;-75
2022/11/07 11:04:53;;;;;;;11.53;10.63;;;16.40;99.90;;;;;;4972082;28;20444;-76
2022/11/07 11:07:21;;;;;;;11.33;10.80;;;16.70;99.90;;;;;;4972288;28;20479;-75
2022/11/07 11:09:51;;;;;;;12.53;11.80;;;16.70;99.90;;;;;;4966257;28;20930;-76
2022/11/07 11:12:25;;;;;;;11.27;10.47;;;16.80;99.90;;;;;;4957265;28;20516;-76
2022/11/07 11:15:04;;;;;;;11.00;10.33;;;16.80;99.90;;;;;;4972578;28;21031;-75
2022/11/07 11:17:32;;;;;;;11.83;11.00;;;16.80;99.90;;;;;;4961413;28;20947;-74
2022/11/07 11:19:59;;;;;;;10.77;10.20;;;16.90;99.90;;;;;;4953213;28;20795;-75
2022/11/07 11:22:27;;;;;;;11.30;10.70;;;17.20;99.90;;;;;;4952471;28;20490;-74
2022/11/07 11:25:04;;;;;;;11.43;10.63;;;17.20;99.90;;;;;;4954545;28;20453;-75
2022/11/07 11:27:34;;;;;;;11.40;10.90;;;17.60;99.90;;;;;;4971415;28;20459;-74
2022/11/07 11:30:06;;;;;;;11.60;10.93;;;18.00;99.90;;;;;;4971112;28;20942;-75
2022/11/07 11:32:39;;;;;;;11.87;11.30;;;18.60;99.90;;;;;;4969059;28;20456;-75
2022/11/07 11:35:15;;;;;;;12.63;11.87;;;19.10;99.90;;;;;;4970434;28;20487;-74
2022/11/07 11:37:46;;;;;;;12.50;11.53;;;19.80;99.40;;;;;;4971216;28;20458;-75
2022/11/07 11:40:17;;;;;;;11.93;11.23;;;21.20;97.00;;;;;;4969246;28;20542;-75
2022/11/07 11:42:53;;;;;;;12.00;11.30;;;22.30;94.90;;;;;;4971090;28;20751;-75
2022/11/07 11:45:28;;;;;;;11.90;11.40;;;22.50;93.00;;;;;;4970979;28;21149;-75
2022/11/07 11:48:02;;;;;;;12.90;12.20;;;22.40;92.90;;;;;;4971321;28;20831;-75
2022/11/07 11:50:36;;;;;;;12.60;11.80;;;22.90;92.30;;;;;;4970781;28;20454;-75
2022/11/07 11:53:03;;;;;;;12.90;12.30;;;22.00;92.30;;;;;;4970888;28;20941;-75
2022/11/07 11:55:41;;;;;;;11.07;10.57;;;20.40;94.70;;;;;;4970317;28;20487;-74
2022/11/07 11:58:21;;;;;;;11.30;10.80;;;19.90;96.30;;;;;;4968947;28;20938;-75
2022/11/07 12:00:56;;;;;;;11.27;10.70;;;19.80;96.90;;;;;;4968693;28;20455;-75
2022/11/07 12:03:49;;;;;;;11.37;10.80;;;19.80;97.20;;;;;;4970853;28;20461;-75
2022/11/07 12:06:19;;;;;;;11.10;10.57;;;19.80;96.50;;;;;;4970924;28;20447;-74
2022/11/07 12:09:15;;;;;;;11.33;10.73;;;19.50;97.30;;;;;;4968501;28;20447;-76
2022/11/07 12:11:53;;;;;;;11.20;10.70;;;19.40;97.10;;;;;;4967048;28;20467;-77
2022/11/07 12:14:37;;;;;;;11.50;11.03;;;19.20;97.10;;;;;;4970249;28;20483;-77
2022/11/07 12:17:09;;;;;;;11.13;10.63;;;18.90;97.60;;;;;;4967045;28;20529;-75
2022/11/07 12:19:42;;;;;;;12.60;11.90;;;19.40;97.50;;;;;;4970285;28;21069;-76
2022/11/07 12:22:19;;;;;;;11.60;11.00;;;19.60;96.40;;;;;;4970514;28;20487;-77
2022/11/07 12:24:49;;;;;;;11.53;11.10;;;19.50;96.40;;;;;;4970600;28;20443;-77
2022/11/07 12:27:26;;;;;;;12.13;11.50;;;19.40;96.60;;;;;;4967815;28;20945;-77
2022/11/07 12:30:15;;;;;;;11.57;11.00;;;19.40;96.90;;;;;;4969846;28;20811;-77
2022/11/07 12:32:51;;;;;;;12.00;11.30;;;19.40;96.50;;;;;;4969373;28;20464;-77
2022/11/07 12:35:35;;;;;;;12.83;11.93;;;19.30;96.90;;;;;;4969716;28;20574;-77
2022/11/07 12:38:26;;;;;;;11.13;10.50;;;19.30;96.90;;;;;;4969928;28;20451;-75
2022/11/07 12:41:03;;;;;;;12.83;12.13;;;19.40;96.20;;;;;;4970054;28;20447;-77
2022/11/07 12:43:43;;;;;;;12.30;11.60;;;19.20;96.90;;;;;;4970166;28;20457;-77
2022/11/07 12:46:16;;;;;;;12.30;11.60;;;18.90;97.40;;;;;;4970019;28;20452;-77
2022/11/07 12:49:01;;;;;;;11.10;10.40;;;19.10;97.40;;;;;;4970337;28;20447;-78
2022/11/07 12:51:43;;;;;;;12.40;11.90;;;19.10;97.10;;;;;;4970343;28;20462;-77
2022/11/07 12:54:29;;;;;;;10.60;10.13;;;19.10;97.00;;;;;;4969923;28;20495;-77
2022/11/07 12:56:58;;;;;;;11.43;10.93;;;18.90;97.20;;;;;;4969982;28;20451;-78
2022/11/07 12:59:28;;;;;;;11.80;11.30;;;18.90;96.90;;;;;;4969772;28;20443;-77
2022/11/07 13:02:04;;;;;;;11.33;10.67;;;18.80;97.20;;;;;;4969627;28;20761;-75
2022/11/07 13:04:38;;;;;;;12.60;11.90;;;18.70;97.00;;;;;;4969446;28;20443;-76
2022/11/07 13:07:13;;;;;;;12.70;12.00;;;18.50;97.20;;;;;;4973608;28;20494;-76
2022/11/07 13:09:49;;;;;;;11.73;11.00;;;18.30;97.50;;;;;;4973507;28;20458;-76
2022/11/07 13:12:25;;;;;;;12.20;11.60;;;18.00;98.50;;;;;;4973516;28;20474;-76
2022/11/07 13:14:53;;;;;;;11.77;11.30;;;18.00;98.70;;;;;;4973513;28;20608;-76
2022/11/07 13:17:23;;;;;;;12.07;11.27;;;18.00;98.80;;;;;;4973394;28;20629;-77
2022/11/07 13:20:00;;;;;;;12.17;11.47;;;18.00;98.50;;;;;;4973209;28;20938;-77
2022/11/07 13:22:34;;;;;;;11.70;10.90;;;17.80;99.10;;;;;;4973541;28;20566;-74
2022/11/07 13:25:26;;;;;;;11.83;11.40;;;17.80;99.40;;;;;;4973573;28;20838;-72
2022/11/07 13:28:06;;;;;;;11.53;10.90;;;17.90;98.90;;;;;;4973276;28;20455;-74
2022/11/07 13:30:38;;;;;;;13.10;12.50;;;18.00;99.00;;;;;;4973748;28;20454;-73
2022/11/07 13:33:07;;;;;;;13.40;12.30;;;18.20;98.90;;;;;;4973372;28;20542;-73
2022/11/07 13:35:36;;;;;;;11.43;10.93;;;18.20;98.30;;;;;;4973100;28;21001;-73
2022/11/07 13:38:11;;;;;;;12.07;11.27;;;18.00;99.00;;;;;;4973324;28;21281;-73
2022/11/07 13:40:38;;;;;;;12.23;11.60;;;18.10;98.80;;;;;;4973263;28;20971;-72
2022/11/07 13:43:12;;;;;;;10.50;10.10;;;18.40;98.20;;;;;;4973285;28;20455;-72
2022/11/07 13:45:43;;;;;;;12.37;11.67;;;18.50;98.10;;;;;;4973120;28;20440;-73
2022/11/07 13:48:17;;;;;;;11.60;10.87;;;18.60;97.50;;;;;;4973402;28;20466;-73
2022/11/07 13:50:49;;;;;;;12.43;11.43;;;18.60;97.50;;;;;;4973235;28;20451;-73
2022/11/07 13:53:23;;;;;;;13.33;12.30;;;18.40;97.40;;;;;;4973219;28;20456;-73
2022/11/07 13:55:57;;;;;;;13.17;12.50;;;18.20;97.80;;;;;;4972896;28;20491;-73
2022/11/07 13:58:27;;;;;;;12.30;11.70;;;18.10;98.10;;;;;;4972939;28;20451;-73
2022/11/07 14:00:54;;;;;;;13.17;12.47;;;18.20;98.50;;;;;;4972991;28;20451;-73
2022/11/07 14:03:27;;;;;;;13.60;12.70;;;18.20;98.50;;;;;;4972747;28;20459;-73
2022/11/07 14:05:55;;;;;;;11.20;10.60;;;18.30;98.00;;;;;;4972988;28;20444;-73
2022/11/07 14:08:27;;;;;;;10.97;10.23;;;18.10;98.40;;;;;;4972852;28;20455;-73
2022/11/07 14:10:55;;;;;;;11.90;11.00;;;18.10;98.50;;;;;;4973289;28;20463;-72
2022/11/07 14:13:25;;;;;;;12.00;11.47;;;17.90;98.60;;;;;;4973185;28;20448;-73
2022/11/07 14:15:55;;;;;;;13.40;12.80;;;17.70;99.00;;;;;;4973122;28;20513;-73
2022/11/07 14:18:25;;;;;;;12.50;11.53;;;17.70;99.40;;;;;;4972584;28;20462;-72
2022/11/07 14:20:54;;;;;;;12.90;12.20;;;17.80;99.00;;;;;;4972718;28;20471;-73
2022/11/07 14:23:24;;;;;;;12.73;12.07;;;17.90;99.40;;;;;;4972649;28;20491;-73
2022/11/07 14:25:56;;;;;;;11.40;10.70;;;18.00;99.20;;;;;;4972920;28;20506;-72
2022/11/07 14:28:24;;;;;;;11.90;11.40;;;17.80;98.90;;;;;;4972539;28;20934;-73
2022/11/07 14:30:52;;;;;;;12.37;11.63;;;17.70;99.10;;;;;;4972460;28;20593;-73
2022/11/07 14:33:21;;;;;;;12.13;11.30;;;17.60;99.20;;;;;;4972404;28;20717;-73
2022/11/07 14:35:49;;;;;;;12.10;11.20;;;17.50;99.90;;;;;;4972471;28;20487;-73
2022/11/07 14:38:21;;;;;;;13.43;12.57;;;17.40;99.90;;;;;;4972644;28;20443;-72
2022/11/07 14:40:50;;;;;;;12.00;11.27;;;17.40;99.90;;;;;;4972435;28;20455;-73
2022/11/07 14:43:19;;;;;;;13.27;12.40;;;17.30;99.90;;;;;;4972339;28;20467;-73
2022/11/07 14:45:47;;;;;;;12.80;12.10;;;17.30;99.90;;;;;;4972303;28;20466;-73
2022/11/07 14:48:16;;;;;;;12.30;11.27;;;17.10;99.90;;;;;;4972559;28;20942;-73
2022/11/07 14:50:45;;;;;;;11.00;10.50;;;17.00;99.90;;;;;;4972767;28;20448;-72
2022/11/07 14:53:18;;;;;;;11.10;10.60;;;17.10;99.90;;;;;;4972594;28;20827;-73
2022/11/07 14:55:49;;;;;;;12.73;11.90;;;17.10;99.90;;;;;;4972440;28;20499;-72
2022/11/07 14:58:19;;;;;;;12.90;12.30;;;17.10;99.90;;;;;;4972063;28;20451;-73
2022/11/07 15:00:52;;;;;;;11.47;10.87;;;17.10;99.90;;;;;;4970429;28;20956;-71
2022/11/07 15:03:21;;;;;;;13.07;12.20;;;17.00;99.90;;;;;;4962744;28;20443;-72
2022/11/07 15:05:48;;;;;;;11.20;10.80;;;16.90;99.90;;;;;;4961593;28;20440;-72
2022/11/07 15:08:29;;;;;;;11.93;11.17;;;16.80;99.90;;;;;;4960794;28;20448;-72
2022/11/07 15:11:06;;;;;;;12.80;11.83;;;16.80;99.90;;;;;;4960124;28;20443;-71
2022/11/07 15:13:35;;;;;;;12.67;12.00;;;16.70;99.90;;;;;;4962316;28;20456;-71
2022/11/07 15:16:04;;;;;;;13.23;12.57;;;16.60;99.90;;;;;;4951531;28;20484;-72
2022/11/07 15:18:35;;;;;;;12.40;11.67;;;16.60;99.90;;;;;;4951619;28;20447;-72
2022/11/07 15:21:02;;;;;;;11.30;10.70;;;16.60;99.90;;;;;;4951359;28;20468;-72
2022/11/07 15:23:31;;;;;;;11.67;11.20;;;16.50;99.90;;;;;;4956406;28;20488;-72
2022/11/07 15:26:01;;;;;;;13.27;12.57;;;16.50;99.90;;;;;;4962344;28;20451;-71
2022/11/07 15:28:30;;;;;;;11.77;11.07;;;16.40;99.90;;;;;;4961009;28;20460;-71
2022/11/07 15:31:00;;;;;;;12.30;11.70;;;16.40;99.90;;;;;;4960355;28;20480;-72
2022/11/07 15:33:30;;;;;;;11.90;11.50;;;16.30;99.90;;;;;;4961224;28;20443;-71
2022/11/07 15:36:00;;;;;;;12.30;11.60;;;16.20;99.90;;;;;;4962183;28;20499;-71
2022/11/07 15:38:28;;;;;;;12.50;11.53;;;16.20;99.90;;;;;;4961648;28;20500;-71
2022/11/07 15:40:56;;;;;;;12.40;11.80;;;16.30;99.90;;;;;;4960051;28;20448;-73
2022/11/07 15:43:23;;;;;;;12.47;11.67;;;16.30;99.90;;;;;;4961258;28;20435;-73
2022/11/07 15:45:52;;;;;;;12.17;11.67;;;16.20;99.90;;;;;;4961468;28;20441;-73
2022/11/07 15:48:22;;;;;;;10.80;10.30;;;16.20;99.90;;;;;;4959956;28;20472;-72
2022/11/07 15:50:49;;;;;;;11.70;11.20;;;16.10;99.90;;;;;;4960570;28;20443;-73
2022/11/07 15:53:20;;;;;;;11.53;10.83;;;16.10;99.90;;;;;;4961561;28;20444;-73
2022/11/07 15:55:48;;;;;;;13.00;12.30;;;16.00;99.90;;;;;;4960906;28;20495;-73
2022/11/07 15:58:15;;;;;;;11.60;11.13;;;16.00;99.90;;;;;;4959566;28;20939;-73
2022/11/07 16:00:42;;;;;;;12.23;11.33;;;15.90;99.90;;;;;;4956163;28;20970;-73
2022/11/07 16:03:16;;;;;;;12.37;11.47;;;15.80;99.90;;;;;;4951703;28;20475;-73
2022/11/07 16:05:45;;;;;;;11.70;11.27;;;15.60;99.90;;;;;;4951568;29;20970;-73
2022/11/07 16:08:17;;;;;;;11.57;11.03;;;15.60;99.90;;;;;;4950868;28;20452;-73
2022/11/07 16:10:47;;;;;;;11.10;10.50;;;15.50;99.90;;;;;;4950409;28;20460;-73
2022/11/07 16:13:13;;;;;;;11.47;10.70;;;15.40;99.90;;;;;;4950334;28;20788;-73
2022/11/07 16:15:42;;;;;;;11.67;10.97;;;15.30;99.90;;;;;;4950967;28;21016;-73
2022/11/07 16:18:17;;;;;;;11.30;10.60;;;15.20;99.90;;;;;;4950170;29;20449;-74
2022/11/07 16:20:46;;;;;;;13.63;12.60;;;15.10;99.90;;;;;;4949800;28;20468;-74
2022/11/07 16:23:13;;;;;;;11.60;11.10;;;15.00;99.90;;;;;;4949524;28;20994;-73
2022/11/07 16:25:40;;;;;;;10.90;10.47;;;14.90;99.90;;;;;;4950166;28;20454;-74
2022/11/07 16:28:21;;;;;;;11.43;10.93;;;14.80;99.90;;;;;;4950430;28;20457;-73
2022/11/07 16:30:48;;;;;;;11.83;11.17;;;14.60;99.90;;;;;;4950249;28;20563;-74
2022/11/07 16:33:15;;;;;;;11.40;10.70;;;14.50;99.90;;;;;;4950462;28;20552;-73
2022/11/07 16:35:42;;;;;;;13.20;12.20;;;14.40;99.90;;;;;;4950882;28;20507;-70
2022/11/07 16:38:14;;;;;;;12.10;11.30;;;14.30;99.90;;;;;;4950623;28;20452;-74
2022/11/07 16:40:41;;;;;;;12.40;11.80;;;14.10;99.90;;;;;;4951849;29;20479;-73
2022/11/07 16:43:08;;;;;;;12.10;11.40;;;14.00;99.90;;;;;;4950638;28;20468;-72
2022/11/07 16:45:35;;;;;;;14.07;12.87;;;13.90;99.90;;;;;;4950577;28;20452;-71
2022/11/07 16:48:02;;;;;;;14.13;13.43;;;13.80;99.90;;;;;;4950860;28;20471;-74
2022/11/07 16:50:29;;;;;;;14.07;12.97;;;13.70;99.90;;;;;;4949583;28;20452;-72
2022/11/07 16:52:56;;;;;;;14.37;13.47;;;13.60;99.90;;;;;;4951079;28;20800;-71
2022/11/07 16:55:24;;;;;;;14.10;12.90;;;13.50;99.90;;;;;;4950824;28;20481;-72
2022/11/07 16:57:51;;;;;;;14.27;13.07;;;13.50;99.90;;;;;;4951073;28;20457;-71
2022/11/07 17:00:19;;;;;;;20.13;14.00;;;13.30;99.90;;;;;;4950442;28;20440;-71
2022/11/07 17:02:46;;;;;;;14.43;13.37;;;13.30;99.90;;;;;;4950792;28;20452;-72
2022/11/07 17:05:13;;;;;;;14.30;13.20;;;13.20;99.90;;;;;;4951177;29;20824;-72
2022/11/07 17:07:40;;;;;;;13.43;12.53;;;13.20;99.90;;;;;;4951116;28;20464;-72
2022/11/07 17:10:13;;;;;;;14.43;13.33;;;13.10;99.90;;;;;;4950688;29;20449;-72